LGAL/AXD METAR and TAF weather

Enter ICAO airport designator
Station Type Date Time Source
LGAL METAR 2018/12/19 03:50 UTC NOAA

LGAL 190350Z 03010KT 9999 BKN025 03/M04 Q1022


Station Type Date Time Source
LGAL Decoded METAR 2018/12/19 03:50 UTC NOAA

Alexandroupoli Airport , Greece (LGAL) 40-51N 025-55E 3M
Dec 18, 2018 - 10:50 PM EST / 2018.12.19 0350 UTC
Wind: from the NNE (030 degrees) at 12 MPH (10 KT):0
Visibility: greater than 7 mile(s):0
Sky conditions: mostly cloudy
Temperature: 37 F (3 C)
Dew Point: 24 F (-4 C)
Relative Humidity: 59%
Pressure (altimeter): 30.18 in. Hg (1022 hPa)
ob: LGAL 190350Z 03010KT 9999 BKN025 03/M04 Q1022
cycle: 4

Station Type Date Time Source
LGAL TAF 2012/09/21 03:06 UTC NOAA

TAF TAF LGAL 210200Z 2103/2115 03012G22KT 9999 FEW020 SCT070 PROB30
TEMPO 2103/2106 6000 RA SCT015 BKN030 PROB30


Example: see airport list